Epic Capri — 9HA2845 — position and weather

sailwx.info

Track history (hours):
 
Tides and Currents Weather Stations Pressure Air Temp Water Temp Dewpoint Dewpoint Depression Visibility Wind Speed Wind Dir Waves Ship Positions

Epic Capri

Last reported at 2016-Jun-24 12:20 UTC. Time now 2016-Jun-25 19:43 UTC.
Position N 38°45' W 009°57'.

Length 99 m; draft 5.3 m.

Type: Ship (hazmat cat B). MMSI: 256325000.

Date/timePositionNaut miles runAvg speedWind from/ knotsBaromVisibWave heightAir tempDewpointWater temp
2016-Jun-24 12:20N 38°45' W 009°57'9 9.2
2016-Jun-24 11:22N 38°36' W 009°55'8 9.2
2016-Jun-24 10:27N 38°28' W 009°52'25 8.7
2016-Jun-24 07:33N 38°11' W 009°29'3010.1
2016-Jun-24 04:33N 37°56' W 008°55'2 1.7
2016-Jun-24 03:33N 37°57' W 008°53'0 0.0
2016-Jun-24 02:33N 37°57' W 008°53'0 0.0
2016-Jun-24 01:33N 37°57' W 008°53'0 0.0
2016-Jun-24 00:33N 37°57' W 008°53'0 0.0
2016-Jun-23 23:33N 37°57' W 008°53'0 0.0
2016-Jun-23 22:32N 37°57' W 008°53'0 0.0
2016-Jun-23 21:33N 37°57' W 008°53'0 0.0
2016-Jun-23 20:29N 37°57' W 008°53'0 0.0
2016-Jun-23 19:33N 37°57' W 008°53'0 0.0
2016-Jun-23 18:33N 37°57' W 008°53'0 0.0
2016-Jun-23 17:33N 37°57' W 008°53'0 0.0
2016-Jun-23 16:33N 37°57' W 008°53'0 0.0
2016-Jun-23 15:33N 37°57' W 008°53'0 0.0
2016-Jun-23 14:33N 37°57' W 008°53'0 0.0
2016-Jun-23 13:33N 37°57' W 008°53'0 0.0
2016-Jun-23 12:33N 37°57' W 008°53'0 0.0
2016-Jun-23 11:33N 37°57' W 008°53'2 2.0
2016-Jun-23 10:33N 37°55' W 008°53'0 0.5
2016-Jun-23 09:32N 37°55' W 008°53'0 0.0
2016-Jun-23 08:29N 37°55' W 008°53'0 0.0
2016-Jun-23 07:32N 37°55' W 008°53'0 0.0
2016-Jun-23 05:32N 37°55' W 008°53'0 0.0
2016-Jun-23 04:32N 37°55' W 008°53'3 2.9
2016-Jun-23 03:33N 37°55' W 008°56'10 9.9
2016-Jun-23 02:33N 37°54' W 009°09'1111.0
2016-Jun-23 01:33N 37°55' W 009°23'1111.1
2016-Jun-23 00:33N 37°56' W 009°36'1111.0
2016-Jun-22 23:33N 37°58' W 009°50'1110.6
2016-Jun-22 22:31N 37°59' W 010°04'7710.5
2016-Jun-22 15:10N 38°08' W 011°41'2110.4
2016-Jun-22 13:09N 38°10' W 012°08'610.0
2016-Jun-22 12:33N 38°11' W 012°15'11 9.9
2016-Jun-22 11:24N 38°12' W 012°30'18610.8
2016-Jun-21 18:09N 38°34' W 016°25'710.5
2016-Jun-21 17:28N 38°35' W 016°35'20911.4
2016-Jun-20 23:11N 39°01' W 021°00'5811.5
2016-Jun-20 18:05N 39°08' W 022°15'911.6
2016-Jun-20 17:16N 39°09' W 022°27'911.7
2016-Jun-20 16:31N 39°10' W 022°38'3711.6
2016-Jun-20 13:20N 39°06' W 023°26'911.5
2016-Jun-20 12:33N 39°05' W 023°37'1311.4
2016-Jun-20 11:23N 39°02' W 023°54'1011.7
2016-Jun-20 10:33N 39°01' W 024°06'1211.5
2016-Jun-20 09:31N 38°58' W 024°21'1111.3
2016-Jun-20 08:33N 38°56' W 024°35'1411.4
2016-Jun-20 07:20N 38°54' W 024°53'1211.6
2016-Jun-20 06:17N 38°52' W 025°08'911.7
2016-Jun-20 05:33N 38°50' W 025°19'1211.7
2016-Jun-20 04:32N 38°48' W 025°34'1111.5
2016-Jun-20 03:33N 38°46' W 025°48'1211.5
2016-Jun-20 02:33N 38°44' W 026°03'1212.1
2016-Jun-20 01:33N 38°42' W 026°18'1211.8
2016-Jun-20 00:33N 38°40' W 026°33'1211.5
2016-Jun-19 23:33N 38°38' W 026°47'1211.5
2016-Jun-19 22:33N 38°35' W 027°02'1111.3
2016-Jun-19 21:33N 38°33' W 027°16'1111.5
2016-Jun-19 20:34N 38°30' W 027°30'1111.0
2016-Jun-19 19:33N 38°29' W 027°44'1111.4
2016-Jun-19 18:33N 38°31' W 027°58'1110.7
2016-Jun-19 17:33N 38°33' W 028°12'1111.1
2016-Jun-19 16:33N 38°36' W 028°25'10 9.8
2016-Jun-19 15:34N 38°32' W 028°37'0 0.3
2016-Jun-19 14:32N 38°32' W 028°37'0 0.0
2016-Jun-19 13:32N 38°32' W 028°37'0 0.0
2016-Jun-19 12:29N 38°32' W 028°37'0 0.0
2016-Jun-19 11:32N 38°32' W 028°37'0 0.0
2016-Jun-19 10:32N 38°32' W 028°37'0 0.0
2016-Jun-19 09:32N 38°32' W 028°37'0 0.0
2016-Jun-19 08:32N 38°32' W 028°37'0 0.0
2016-Jun-19 07:32N 38°32' W 028°37'0 0.0
2016-Jun-19 06:32N 38°32' W 028°37'0 0.0
2016-Jun-19 05:34N 38°32' W 028°37'1 0.6
2016-Jun-19 04:33N 38°32' W 028°37'0 0.0
2016-Jun-19 03:33N 38°32' W 028°37'0 0.0
2016-Jun-19 02:33N 38°32' W 028°37'0 0.0
2016-Jun-19 01:33N 38°32' W 028°37'0 0.1
2016-Jun-19 00:33N 38°32' W 028°37'0 0.0
2016-Jun-18 23:33N 38°32' W 028°37'0 0.0
2016-Jun-18 22:33N 38°32' W 028°37'0 0.0
2016-Jun-18 21:30N 38°32' W 028°37'0 0.0
2016-Jun-18 20:33N 38°32' W 028°37'0 0.0
2016-Jun-18 19:33N 38°32' W 028°37'0 0.0
2016-Jun-18 18:33N 38°32' W 028°37'0 0.0
2016-Jun-18 17:33N 38°32' W 028°37'0 0.0
2016-Jun-18 16:33N 38°32' W 028°37'0 0.0
2016-Jun-18 15:33N 38°32' W 028°37'2 1.7
2016-Jun-18 14:34N 38°33' W 028°35'8 8.1
2016-Jun-18 13:33N 38°36' W 028°25'1110.9
2016-Jun-18 12:33N 38°33' W 028°11'1111.0
2016-Jun-18 11:34N 38°31' W 027°58'1110.6
2016-Jun-18 10:34N 38°29' W 027°44'1010.4
2016-Jun-18 09:34N 38°30' W 027°31'1110.7
2016-Jun-18 08:30N 38°33' W 027°17'16 7.6
2016-Jun-18 06:25N 38°43' W 027°02'1 0.1
2016-Jun-17 21:32N 38°43' W 027°03'3 2.8
2016-Jun-17 20:33N 38°43' W 026°59'2110.5
2016-Jun-17 18:33N 38°27' W 026°41'1110.8
2016-Jun-17 17:33N 38°19' W 026°32'1010.5
2016-Jun-17 16:33N 38°12' W 026°23'1110.8
2016-Jun-17 15:33N 38°04' W 026°13'1110.9
2016-Jun-17 14:33N 37°56' W 026°04'1110.6
2016-Jun-17 13:33N 37°49' W 025°54'1110.7
2016-Jun-17 12:33N 37°43' W 025°43'3 2.7
2016-Jun-17 11:34N 37°44' W 025°40'0 0.0
2016-Jun-17 10:32N 37°44' W 025°40'0 0.0
2016-Jun-17 09:32N 37°44' W 025°40'0 0.0
2016-Jun-17 08:32N 37°44' W 025°40'0 0.0
2016-Jun-17 07:32N 37°44' W 025°40'0 0.0
2016-Jun-17 06:32N 37°44' W 025°40'0 0.0
2016-Jun-17 05:32N 37°44' W 025°40'0 0.0
2016-Jun-17 04:32N 37°44' W 025°40'0 0.0
2016-Jun-17 03:32N 37°44' W 025°40'0 0.0
2016-Jun-17 02:32N 37°44' W 025°40'0 0.0
2016-Jun-17 01:32N 37°44' W 025°40'0 0.0
2016-Jun-17 00:32N 37°44' W 025°40'0 0.0
2016-Jun-16 23:32N 37°44' W 025°40'0 0.0
2016-Jun-16 22:32N 37°44' W 025°40'0 0.0
2016-Jun-16 21:32N 37°44' W 025°40'0 0.0
2016-Jun-16 20:32N 37°44' W 025°40'0 0.0
2016-Jun-16 19:32N 37°44' W 025°40'0 0.0
2016-Jun-16 18:32N 37°44' W 025°40'3 2.9
2016-Jun-16 17:33N 37°43' W 025°37'8 8.4
2016-Jun-16 16:34N 37°40' W 025°27'1111.1
2016-Jun-16 15:33N 37°40' W 025°13'1111.1
2016-Jun-16 14:33N 37°40' W 024°59'1111.2
2016-Jun-16 13:33N 37°43' W 024°45'1111.0
2016-Jun-16 12:34N 37°46' W 024°32'1110.6
2016-Jun-16 11:33N 37°49' W 024°19'1010.2
2016-Jun-16 10:33N 37°52' W 024°07'1110.3
2016-Jun-16 09:31N 37°53' W 023°53'1010.2
2016-Jun-16 08:29N 37°53' W 023°40'1010.4
2016-Jun-16 07:29N 37°53' W 023°27'1410.5
2016-Jun-16 06:09N 37°53' W 023°09'  
Track history (hours):
 
Tides and Currents Weather Stations Pressure Air Temp Water Temp Dewpoint Dewpoint Depression Visibility Wind Speed Wind Dir Waves Ship Positions

Epic Capri

Last reported at 2016-Jun-24 12:20 UTC. Time now 2016-Jun-25 19:43 UTC.
Position N 38°45' W 009°57'.

Length 99 m; draft 5.3 m.

Type: Ship (hazmat cat B). MMSI: 256325000.

Date/timePositionNaut miles runAvg speedWind from/ knotsBaromVisibWave heightAir tempDewpointWater temp
2016-Jun-24 12:20N 38°45' W 009°57'9 9.2
2016-Jun-24 11:22N 38°36' W 009°55'8 9.2
2016-Jun-24 10:27N 38°28' W 009°52'25 8.7
2016-Jun-24 07:33N 38°11' W 009°29'3010.1
2016-Jun-24 04:33N 37°56' W 008°55'2 1.7
2016-Jun-24 03:33N 37°57' W 008°53'0 0.0
2016-Jun-24 02:33N 37°57' W 008°53'0 0.0
2016-Jun-24 01:33N 37°57' W 008°53'0 0.0
2016-Jun-24 00:33N 37°57' W 008°53'0 0.0
2016-Jun-23 23:33N 37°57' W 008°53'0 0.0
2016-Jun-23 22:32N 37°57' W 008°53'0 0.0
2016-Jun-23 21:33N 37°57' W 008°53'0 0.0
2016-Jun-23 20:29N 37°57' W 008°53'0 0.0
2016-Jun-23 19:33N 37°57' W 008°53'0 0.0
2016-Jun-23 18:33N 37°57' W 008°53'0 0.0
2016-Jun-23 17:33N 37°57' W 008°53'0 0.0
2016-Jun-23 16:33N 37°57' W 008°53'0 0.0
2016-Jun-23 15:33N 37°57' W 008°53'0 0.0
2016-Jun-23 14:33N 37°57' W 008°53'0 0.0
2016-Jun-23 13:33N 37°57' W 008°53'0 0.0
2016-Jun-23 12:33N 37°57' W 008°53'0 0.0
2016-Jun-23 11:33N 37°57' W 008°53'2 2.0
2016-Jun-23 10:33N 37°55' W 008°53'0 0.5
2016-Jun-23 09:32N 37°55' W 008°53'0 0.0
2016-Jun-23 08:29N 37°55' W 008°53'0 0.0
2016-Jun-23 07:32N 37°55' W 008°53'0 0.0
2016-Jun-23 05:32N 37°55' W 008°53'0 0.0
2016-Jun-23 04:32N 37°55' W 008°53'3 2.9
2016-Jun-23 03:33N 37°55' W 008°56'10 9.9
2016-Jun-23 02:33N 37°54' W 009°09'1111.0
2016-Jun-23 01:33N 37°55' W 009°23'1111.1
2016-Jun-23 00:33N 37°56' W 009°36'1111.0
2016-Jun-22 23:33N 37°58' W 009°50'1110.6
2016-Jun-22 22:31N 37°59' W 010°04'7710.5
2016-Jun-22 15:10N 38°08' W 011°41'2110.4
2016-Jun-22 13:09N 38°10' W 012°08'610.0
2016-Jun-22 12:33N 38°11' W 012°15'11 9.9
2016-Jun-22 11:24N 38°12' W 012°30'18610.8
2016-Jun-21 18:09N 38°34' W 016°25'710.5
2016-Jun-21 17:28N 38°35' W 016°35'20911.4
2016-Jun-20 23:11N 39°01' W 021°00'5811.5
2016-Jun-20 18:05N 39°08' W 022°15'911.6
2016-Jun-20 17:16N 39°09' W 022°27'911.7
2016-Jun-20 16:31N 39°10' W 022°38'3711.6
2016-Jun-20 13:20N 39°06' W 023°26'911.5
2016-Jun-20 12:33N 39°05' W 023°37'1311.4
2016-Jun-20 11:23N 39°02' W 023°54'1011.7
2016-Jun-20 10:33N 39°01' W 024°06'1211.5
2016-Jun-20 09:31N 38°58' W 024°21'1111.3
2016-Jun-20 08:33N 38°56' W 024°35'1411.4
2016-Jun-20 07:20N 38°54' W 024°53'1211.6
2016-Jun-20 06:17N 38°52' W 025°08'911.7
2016-Jun-20 05:33N 38°50' W 025°19'1211.7
2016-Jun-20 04:32N 38°48' W 025°34'1111.5
2016-Jun-20 03:33N 38°46' W 025°48'1211.5
2016-Jun-20 02:33N 38°44' W 026°03'1212.1
2016-Jun-20 01:33N 38°42' W 026°18'1211.8
2016-Jun-20 00:33N 38°40' W 026°33'1211.5
2016-Jun-19 23:33N 38°38' W 026°47'1211.5
2016-Jun-19 22:33N 38°35' W 027°02'1111.3
2016-Jun-19 21:33N 38°33' W 027°16'1111.5
2016-Jun-19 20:34N 38°30' W 027°30'1111.0
2016-Jun-19 19:33N 38°29' W 027°44'1111.4
2016-Jun-19 18:33N 38°31' W 027°58'1110.7
2016-Jun-19 17:33N 38°33' W 028°12'1111.1
2016-Jun-19 16:33N 38°36' W 028°25'10 9.8
2016-Jun-19 15:34N 38°32' W 028°37'0 0.3
2016-Jun-19 14:32N 38°32' W 028°37'0 0.0
2016-Jun-19 13:32N 38°32' W 028°37'0 0.0
2016-Jun-19 12:29N 38°32' W 028°37'0 0.0
2016-Jun-19 11:32N 38°32' W 028°37'0 0.0
2016-Jun-19 10:32N 38°32' W 028°37'0 0.0
2016-Jun-19 09:32N 38°32' W 028°37'0 0.0
2016-Jun-19 08:32N 38°32' W 028°37'0 0.0
2016-Jun-19 07:32N 38°32' W 028°37'0 0.0
2016-Jun-19 06:32N 38°32' W 028°37'0 0.0
2016-Jun-19 05:34N 38°32' W 028°37'1 0.6
2016-Jun-19 04:33N 38°32' W 028°37'0 0.0
2016-Jun-19 03:33N 38°32' W 028°37'0 0.0
2016-Jun-19 02:33N 38°32' W 028°37'0 0.0
2016-Jun-19 01:33N 38°32' W 028°37'0 0.1
2016-Jun-19 00:33N 38°32' W 028°37'0 0.0
2016-Jun-18 23:33N 38°32' W 028°37'0 0.0
2016-Jun-18 22:33N 38°32' W 028°37'0 0.0
2016-Jun-18 21:30N 38°32' W 028°37'0 0.0
2016-Jun-18 20:33N 38°32' W 028°37'0 0.0
2016-Jun-18 19:33N 38°32' W 028°37'0 0.0
2016-Jun-18 18:33N 38°32' W 028°37'0 0.0
2016-Jun-18 17:33N 38°32' W 028°37'0 0.0
2016-Jun-18 16:33N 38°32' W 028°37'0 0.0
2016-Jun-18 15:33N 38°32' W 028°37'2 1.7
2016-Jun-18 14:34N 38°33' W 028°35'8 8.1
2016-Jun-18 13:33N 38°36' W 028°25'1110.9
2016-Jun-18 12:33N 38°33' W 028°11'1111.0
2016-Jun-18 11:34N 38°31' W 027°58'1110.6
2016-Jun-18 10:34N 38°29' W 027°44'1010.4
2016-Jun-18 09:34N 38°30' W 027°31'1110.7
2016-Jun-18 08:30N 38°33' W 027°17'16 7.6
2016-Jun-18 06:25N 38°43' W 027°02'1 0.1
2016-Jun-17 21:32N 38°43' W 027°03'3 2.8
2016-Jun-17 20:33N 38°43' W 026°59'2110.5
2016-Jun-17 18:33N 38°27' W 026°41'1110.8
2016-Jun-17 17:33N 38°19' W 026°32'1010.5
2016-Jun-17 16:33N 38°12' W 026°23'1110.8
2016-Jun-17 15:33N 38°04' W 026°13'1110.9
2016-Jun-17 14:33N 37°56' W 026°04'1110.6
2016-Jun-17 13:33N 37°49' W 025°54'1110.7
2016-Jun-17 12:33N 37°43' W 025°43'3 2.7
2016-Jun-17 11:34N 37°44' W 025°40'0 0.0
2016-Jun-17 10:32N 37°44' W 025°40'0 0.0
2016-Jun-17 09:32N 37°44' W 025°40'0 0.0
2016-Jun-17 08:32N 37°44' W 025°40'0 0.0
2016-Jun-17 07:32N 37°44' W 025°40'0 0.0
2016-Jun-17 06:32N 37°44' W 025°40'0 0.0
2016-Jun-17 05:32N 37°44' W 025°40'0 0.0
2016-Jun-17 04:32N 37°44' W 025°40'0 0.0
2016-Jun-17 03:32N 37°44' W 025°40'0 0.0
2016-Jun-17 02:32N 37°44' W 025°40'0 0.0
2016-Jun-17 01:32N 37°44' W 025°40'0 0.0
2016-Jun-17 00:32N 37°44' W 025°40'0 0.0
2016-Jun-16 23:32N 37°44' W 025°40'0 0.0
2016-Jun-16 22:32N 37°44' W 025°40'0 0.0
2016-Jun-16 21:32N 37°44' W 025°40'0 0.0
2016-Jun-16 20:32N 37°44' W 025°40'0 0.0
2016-Jun-16 19:32N 37°44' W 025°40'0 0.0
2016-Jun-16 18:32N 37°44' W 025°40'3 2.9
2016-Jun-16 17:33N 37°43' W 025°37'8 8.4
2016-Jun-16 16:34N 37°40' W 025°27'1111.1
2016-Jun-16 15:33N 37°40' W 025°13'1111.1
2016-Jun-16 14:33N 37°40' W 024°59'1111.2
2016-Jun-16 13:33N 37°43' W 024°45'1111.0
2016-Jun-16 12:34N 37°46' W 024°32'1110.6
2016-Jun-16 11:33N 37°49' W 024°19'1010.2
2016-Jun-16 10:33N 37°52' W 024°07'1110.3
2016-Jun-16 09:31N 37°53' W 023°53'1010.2
2016-Jun-16 08:29N 37°53' W 023°40'1010.4
2016-Jun-16 07:29N 37°53' W 023°27'1410.5
2016-Jun-16 06:09N 37°53' W 023°09'  

Dump ship's entire track history